Belle River, Canada
Current Conditions -  °F | °C
As of 8:00 PM on Saturday 25 Oct 2014 (Local Time) from CYQG Reporting Station
Clear Clear  
Wind Chill: 16°   Ceiling: Unl
Heat Index: 16°   Visibility: 15mi
Dew Point:   Wind: 17mph
Humidity: 36%   Direction: 290°WNW
Pressure: 29.77"   Gusts: 28mph
Location:  42.3°N, 82.72°W
Report Text: CYQG 260000Z 29015G24KT 15SM SKC 16/01 A2977 RMK SLP081 DENSITY ALT 1000FT
Loading
Personal Weather Stations






























Interactive Weather Map
Tropical Storm Tracking
New forecast layout! Learn more

10-Day Weather Forecast

Advertisements
Track Severe Weather on mobile